Blue Ridge Airport

Jump to: basic info | weather | frequencies | runways | comments

Related pages: nearby airports | nearby navaids | notams | map

Basic information (top)

Codes: KMTV MTV
Location: lon 36.630699, lat -80.018303, elev 941 ft / 287 m msl
Status: small_airport

Weather (top)

Current conditions (rec'd 2014/07/24 22:35Z):

KMTV 242235Z AUTO 36006KT 10SM -DZ SCT037 OVC060 25/20 A2992 RMK AO2 LTG DSNT SE T02470204

Airport forecast for Smith Reynolds Airport 31nm (58km) SSW (rec'd 2014/07/24 18:30Z):

TAF KINT 241726Z 2418/2518 VRB05KT P6SM VCSH SCT025 BKN035 
      TEMPO 2418/2422 VRB15G25KT 3SM SHRA BR BKN015 
     FM250400 VRB05KT P6SM BKN035

Frequencies (top)

Verify before use: may be inaccurate or out of date.

A/D: 124.35 MHz (GREENSBORO APP/DEP)
AWOS: 118.45 MHz (AWOS 3)
CLD: 124.85 MHz (CLNC DEL)
UNIC: 122.7 MHz (CTAF/UNICOM)

Runways (top)

12/30: 5,002 x 100 ft (1,525 x 30 m) — paved — lighted

Latest comments (top)

Runway Cafe: Great little place to eat right next to ... [read]

More... (top)

See also NOTAMs and nearby airports and navaids, or visit the Blue Ridge Airport page at the main OurAirports website..